Time;durP1;ratioP1;P1;durP2;ratioP2;P2;SDS_P1;SDS_P2;PMS_P1;PMS_P2;Temp;Humidity;BMP_temperature;BMP_pressure;BME280_temperature;BME280_humidity;BME280_pressure;Samples;Min_cycle;Max_cycle;Signal;HPM_P1;HPM_P2
2022/04/30 00:01:31;;;;;;;10.40;7.80;;;;;;101384.81;;;;107219;1274;65682;-34
2022/04/30 00:03:59;;;;;;;10.30;7.70;;;;;;101382.44;;;;107259;1274;65578;-31
2022/04/30 00:06:29;;;;;;;8.10;7.30;;;;;;101381.13;;;;107238;1274;66850;-31
2022/04/30 00:08:57;;;;;;;9.30;8.20;;;;;;101381.10;;;;107210;1274;65698;-31
2022/04/30 00:11:24;;;;;;;9.30;8.00;;;;;;101379.35;;;;107254;1274;65572;-31
2022/04/30 00:13:54;;;;;;;9.00;7.90;;;;;;101377.58;;;;107233;1274;65707;-33
2022/04/30 00:16:24;;;;;;;8.80;7.80;;;;;;101377.58;;;;107289;1274;65588;-34
2022/04/30 00:18:52;;;;;;;9.30;8.30;;;;;;101378.82;;;;107159;1274;68197;-34
2022/04/30 00:21:22;;;;;;;9.40;8.40;;;;;;101379.45;;;;107245;1274;65563;-35
2022/04/30 00:23:49;;;;;;;9.60;8.20;;;;;;101381.29;;;;107220;1274;65632;-33
2022/04/30 00:26:16;;;;;;;9.60;8.10;;;;;;101380.59;;;;107237;1274;64386;-51
2022/04/30 00:28:44;;;;;;;10.10;8.80;;;;;;101379.59;;;;107238;1274;65676;-33
2022/04/30 00:31:12;;;;;;;8.90;8.00;;;;;;101382.44;;;;107281;1274;67302;-31
2022/04/30 00:33:39;;;;;;;10.50;8.50;;;;;;101383.30;;;;107217;1274;65659;-31
2022/04/30 00:36:06;;;;;;;9.20;8.30;;;;;;101384.77;;;;107248;1274;65712;-31
2022/04/30 00:38:33;;;;;;;9.90;8.60;;;;;;101382.02;;;;107148;1273;65658;-31
2022/04/30 00:41:00;;;;;;;10.60;8.60;;;;;;101382.14;;;;107175;1274;65698;-34
2022/04/30 00:43:30;;;;;;;10.00;8.80;;;;;;101382.02;;;;107250;1274;66963;-34
2022/04/30 00:45:58;;;;;;;10.90;8.80;;;;;;101385.23;;;;107109;1273;65722;-31
2022/04/30 00:48:28;;;;;;;10.30;8.90;;;;;;101385.41;;;;107155;1274;65583;-31
2022/04/30 00:50:56;;;;;;;10.10;9.00;;;;;;101383.16;;;;107230;1274;65681;-34
2022/04/30 00:53:26;;;;;;;10.90;8.80;;;;;;101379.99;;;;107183;1274;65735;-44
2022/04/30 00:55:57;;;;;;;10.00;9.00;;;;;;101379.96;;;;107257;1274;67299;-31
2022/04/30 00:58:30;;;;;;;10.40;9.20;;;;;;101379.13;;;;107244;1274;65611;-31
2022/04/30 01:01:04;;;;;;;10.10;8.90;;;;;;101380.53;;;;107235;1274;65560;-31
2022/04/30 01:03:31;;;;;;;11.10;9.30;;;;;;101380.54;;;;107231;1274;66274;-30
2022/04/30 01:06:02;;;;;;;9.90;8.90;;;;;;101379.83;;;;107240;1274;65618;-31
2022/04/30 01:08:29;;;;;;;10.20;8.80;;;;;;101381.14;;;;107252;1273;66979;-31
2022/04/30 01:11:03;;;;;;;10.60;9.00;;;;;;101379.52;;;;107198;1274;65726;-31
2022/04/30 01:13:36;;;;;;;10.60;9.50;;;;;;101380.11;;;;107242;1274;65554;-31
2022/04/30 01:16:07;;;;;;;10.40;9.00;;;;;;101375.10;;;;107253;1274;65584;-32
2022/04/30 01:18:35;;;;;;;10.80;9.40;;;;;;101374.64;;;;107243;1274;65607;-31
2022/04/30 01:21:13;;;;;;;11.50;9.40;;;;;;101372.40;;;;107271;1274;66528;-31
2022/04/30 01:23:43;;;;;;;9.90;8.90;;;;;;101373.05;;;;107250;1274;65688;-31
2022/04/30 01:26:14;;;;;;;10.10;9.00;;;;;;101372.80;;;;107252;1274;65576;-32
2022/04/30 01:28:45;;;;;;;10.20;9.10;;;;;;101374.15;;;;107229;1274;65590;-31
2022/04/30 01:39:39;;;;;;;12.20;10.10;;;;;;101383.14;;;;107252;1274;65672;-32
2022/04/30 01:42:11;;;;;;;10.80;9.70;;;;;;101381.40;;;;107125;1273;65674;-31
2022/04/30 01:44:41;;;;;;;10.70;9.60;;;;;;101378.48;;;;107146;1274;65703;-36
2022/04/30 01:47:11;;;;;;;10.90;9.70;;;;;;101377.84;;;;107253;1273;65711;-31
2022/04/30 01:49:39;;;;;;;11.10;9.90;;;;;;101377.47;;;;107276;1274;65585;-34
2022/04/30 01:52:10;;;;;;;10.60;9.50;;;;;;101375.55;;;;107232;1274;65549;-34
2022/04/30 01:54:37;;;;;;;11.80;9.70;;;;;;101375.34;;;;107235;1274;65739;-31
2022/04/30 01:57:08;;;;;;;11.50;10.30;;;;;;101375.73;;;;107238;1274;65650;-31
2022/04/30 01:59:35;;;;;;;11.60;10.40;;;;;;101377.39;;;;107179;1274;67620;-31
2022/04/30 02:02:06;;;;;;;11.90;10.40;;;;;;101378.39;;;;107208;1274;65752;-31
2022/04/30 02:04:36;;;;;;;12.70;10.30;;;;;;101377.49;;;;107213;1274;65819;-33
2022/04/30 02:07:03;;;;;;;11.50;9.60;;;;;;101375.14;;;;107218;1274;65599;-34
2022/04/30 02:09:32;;;;;;;11.70;9.80;;;;;;101378.94;;;;107179;1273;65651;-31
2022/04/30 02:12:04;;;;;;;11.80;10.20;;;;;;101378.72;;;;107249;1274;67313;-31
2022/04/30 02:14:35;;;;;;;11.70;9.70;;;;;;101379.95;;;;107255;1274;65581;-34
2022/04/30 02:17:06;;;;;;;11.90;10.60;;;;;;101377.21;;;;107258;1274;66228;-34
2022/04/30 02:22:37;;;;;;;11.30;10.00;;;;;;101371.98;;;;107128;1274;65702;-32
2022/04/30 02:25:12;;;;;;;11.30;9.60;;;;;;101371.48;;;;107245;1274;68342;-36
2022/04/30 02:27:43;;;;;;;11.50;10.30;;;;;;101366.36;;;;107177;1274;65673;-31
2022/04/30 02:30:14;;;;;;;11.80;10.30;;;;;;101364.02;;;;107223;1274;65640;-31
2022/04/30 02:32:48;;;;;;;11.30;9.60;;;;;;101361.63;;;;107257;1274;65769;-30
2022/04/30 02:35:24;;;;;;;11.40;10.10;;;;;;101360.98;;;;107182;1274;65679;-31
2022/04/30 02:37:56;;;;;;;11.20;9.90;;;;;;101359.13;;;;107245;1274;67275;-32
2022/04/30 02:40:29;;;;;;;11.40;10.20;;;;;;101359.52;;;;107161;1274;65604;-31
2022/04/30 02:43:08;;;;;;;13.50;11.10;;;;;;101361.58;;;;107230;1274;66192;-31
2022/04/30 02:45:42;;;;;;;11.70;10.40;;;;;;101361.52;;;;107227;1274;65672;-33
2022/04/30 02:48:12;;;;;;;12.70;11.00;;;;;;101360.90;;;;107241;1274;65568;-34
2022/04/30 02:50:42;;;;;;;11.90;10.60;;;;;;101357.83;;;;107248;1274;66968;-34
2022/04/30 02:53:12;;;;;;;13.20;10.80;;;;;;101360.32;;;;107214;1274;65556;-34
2022/04/30 02:55:42;;;;;;;12.30;10.60;;;;;;101362.02;;;;107229;1274;65598;-35
2022/04/30 03:00:59;;;;;;;12.60;11.20;;;;;;101356.72;;;;107255;1274;65704;-35
2022/04/30 03:03:29;;;;;;;12.90;11.00;;;;;;101357.29;;;;107240;1274;68377;-34
2022/04/30 03:05:57;;;;;;;12.60;11.00;;;;;;101355.95;;;;107256;1274;65642;-30
2022/04/30 03:08:26;;;;;;;12.90;11.50;;;;;;101350.91;;;;107185;1274;65680;-31
2022/04/30 03:10:57;;;;;;;12.90;11.60;;;;;;101347.08;;;;107266;1274;65708;-31
2022/04/30 03:13:25;;;;;;;12.50;11.20;;;;;;101348.85;;;;107250;1273;65704;-31
2022/04/30 03:21:41;;;;;;;13.80;11.10;;;;;;101348.11;;;;107155;1276;65744;-33
2022/04/30 03:21:44;;;;;;;12.40;11.10;;;;;;101350.38;;;;107172;1274;65663;-31
2022/04/30 03:24:21;;;;;;;12.90;10.90;;;;;;101353.10;;;;107165;1274;65777;-31
2022/04/30 03:26:49;;;;;;;13.00;11.60;;;;;;101352.58;;;;107164;1274;65782;-31
2022/04/30 03:29:18;;;;;;;11.70;10.50;;;;;;101351.16;;;;107125;1274;66466;-33
2022/04/30 03:31:47;;;;;;;12.30;10.90;;;;;;101349.63;;;;107181;1273;65598;-33
2022/04/30 03:34:18;;;;;;;12.60;11.30;;;;;;101351.34;;;;107146;1273;65443;-33
2022/04/30 03:36:45;;;;;;;13.50;11.60;;;;;;101350.90;;;;107165;1273;67015;-32
2022/04/30 03:39:12;;;;;;;12.20;10.90;;;;;;101350.17;;;;107141;1274;65612;-31
2022/04/30 03:41:42;;;;;;;12.50;10.70;;;;;;101352.24;;;;107138;1273;67354;-30
2022/04/30 03:44:10;;;;;;;14.10;11.10;;;;;;101351.41;;;;107145;1273;65644;-34
2022/04/30 03:46:40;;;;;;;12.80;11.40;;;;;;101354.09;;;;107163;1273;65674;-34
2022/04/30 03:49:11;;;;;;;13.10;11.40;;;;;;101355.54;;;;107130;1274;65554;-29
2022/04/30 03:51:38;;;;;;;11.50;10.30;;;;;;101360.12;;;;107141;1274;65807;-30
2022/04/30 03:54:05;;;;;;;13.50;11.30;;;;;;101357.91;;;;107203;1274;66081;-34
2022/04/30 03:56:33;;;;;;;12.60;11.00;;;;;;101360.77;;;;107139;1273;65678;-33
2022/04/30 03:59:03;;;;;;;12.90;11.50;;;;;;101363.61;;;;107133;1274;65672;-31
2022/04/30 04:01:35;;;;;;;12.20;10.50;;;;;;101364.08;;;;107139;1273;65650;-30
2022/04/30 04:04:03;;;;;;;11.90;10.70;;;;;;101363.70;;;;107179;1273;65559;-31
2022/04/30 04:06:31;;;;;;;13.00;11.50;;;;;;101363.60;;;;107197;1273;65950;-30
2022/04/30 04:08:59;;;;;;;13.20;11.70;;;;;;101365.56;;;;107121;1274;65783;-33
2022/04/30 04:11:30;;;;;;;12.20;11.00;;;;;;101363.73;;;;107184;1274;65591;-34
2022/04/30 04:19:32;;;;;;;13.80;11.80;;;;;;101361.98;;;;107167;1273;68190;-33
2022/04/30 04:22:00;;;;;;;13.30;12.00;;;;;;101364.89;;;;107132;1274;65761;-35
2022/04/30 04:27:17;;;;;;;13.20;11.40;;;;;;101366.11;;;;107140;1274;65714;-34
2022/04/30 04:29:47;;;;;;;12.30;11.00;;;;;;101365.70;;;;107193;1274;65551;-41
2022/04/30 04:32:14;;;;;;;12.70;11.20;;;;;;101365.14;;;;107147;1274;66233;-33
2022/04/30 04:34:44;;;;;;;11.70;10.50;;;;;;101366.62;;;;107164;1274;65589;-34
2022/04/30 04:37:12;;;;;;;12.50;11.20;;;;;;101365.28;;;;107166;1274;65542;-33
2022/04/30 04:39:39;;;;;;;12.30;10.80;;;;;;101366.60;;;;107158;1274;65762;-31
2022/04/30 04:42:07;;;;;;;12.80;11.50;;;;;;101364.85;;;;107151;1273;65687;-31
2022/04/30 04:44:35;;;;;;;12.20;10.90;;;;;;101363.28;;;;107175;1274;68147;-31
2022/04/30 04:47:06;;;;;;;13.00;10.90;;;;;;101367.37;;;;107178;1274;65731;-30
2022/04/30 04:49:33;;;;;;;13.20;11.50;;;;;;101368.05;;;;107127;1275;65542;-31
2022/04/30 04:52:04;;;;;;;13.80;11.50;;;;;;101368.17;;;;107147;1273;65793;-31
2022/04/30 04:54:35;;;;;;;14.70;11.20;;;;;;101367.50;;;;107168;1274;65552;-31
2022/04/30 04:57:05;;;;;;;11.80;10.50;;;;;;101369.23;;;;107157;1273;65932;-31
2022/04/30 04:59:32;;;;;;;12.70;11.20;;;;;;101369.88;;;;107139;1274;65775;-31
2022/04/30 05:02:03;;;;;;;12.70;11.40;;;;;;101370.88;;;;107164;1274;65594;-31
2022/04/30 05:04:34;;;;;;;11.60;10.40;;;;;;101370.30;;;;107186;1274;67040;-31
2022/04/30 05:07:01;;;;;;;12.10;10.80;;;;;;101368.66;;;;107167;1273;65555;-31
2022/04/30 05:09:31;;;;;;;13.60;10.70;;;;;;101367.66;;;;107178;1274;66112;-31
2022/04/30 05:12:01;;;;;;;11.90;10.60;;;;;;101368.98;;;;107138;1274;65802;-31
2022/04/30 05:14:32;;;;;;;12.60;10.80;;;;;;101369.70;;;;107100;1274;65755;-32
2022/04/30 05:17:00;;;;;;;12.90;10.90;;;;;;101370.58;;;;107146;1273;65487;-33
2022/04/30 05:19:31;;;;;;;12.20;10.90;;;;;;101367.80;;;;107195;1273;65535;-33
2022/04/30 05:21:58;;;;;;;12.30;10.60;;;;;;101365.50;;;;107158;1274;67265;-33
2022/04/30 05:24:29;;;;;;;13.50;10.60;;;;;;101366.23;;;;107126;1274;65695;-30
2022/04/30 05:26:57;;;;;;;12.10;10.40;;;;;;101364.98;;;;107219;1274;65710;-31
2022/04/30 05:29:24;;;;;;;12.30;10.60;;;;;;101366.89;;;;107155;1274;65704;-30
2022/04/30 05:31:51;;;;;;;11.20;9.90;;;;;;101366.14;;;;107154;1273;65554;-31
2022/04/30 05:34:21;;;;;;;12.20;10.00;;;;;;101367.14;;;;107170;1273;67258;-30
2022/04/30 05:36:48;;;;;;;11.60;9.90;;;;;;101365.86;;;;107106;1277;65736;-32
2022/04/30 05:39:18;;;;;;;11.70;10.10;;;;;;101365.89;;;;107168;1273;65578;-34
2022/04/30 05:41:46;;;;;;;11.30;9.90;;;;;;101367.27;;;;107154;1274;65559;-33
2022/04/30 05:44:17;;;;;;;12.20;10.40;;;;;;101365.75;;;;107157;1276;65671;-35
2022/04/30 05:46:44;;;;;;;13.60;10.70;;;;;;101365.67;;;;107178;1274;66731;-34
2022/04/30 05:49:14;;;;;;;12.00;10.70;;;;;;101367.84;;;;107163;1274;65842;-33
2022/04/30 05:51:45;;;;;;;11.70;10.00;;;;;;101371.77;;;;107132;1274;65770;-32
2022/04/30 05:54:16;;;;;;;12.10;10.80;;;;;;101377.33;;;;107145;1275;66096;-31
2022/04/30 05:56:46;;;;;;;11.50;9.80;;;;;;101380.46;;;;107173;1274;65576;-31
2022/04/30 05:59:18;;;;;;;11.60;10.00;;;;;;101381.23;;;;107177;1274;67336;-34
2022/04/30 06:01:45;;;;;;;11.30;10.00;;;;;;101382.09;;;;107110;1273;65725;-33
2022/04/30 06:04:16;;;;;;;12.30;9.90;;;;;;101382.08;;;;107171;1274;65558;-33
2022/04/30 06:06:44;;;;;;;12.20;10.40;;;;;;101382.00;;;;107131;1277;65556;-34
2022/04/30 06:09:14;;;;;;;11.10;9.90;;;;;;101380.34;;;;107192;1274;65711;-34
2022/04/30 06:11:42;;;;;;;11.50;9.50;;;;;;101379.73;;;;107168;1274;66903;-34
2022/04/30 06:14:09;;;;;;;11.30;9.60;;;;;;101380.67;;;;107162;1274;65672;-31
2022/04/30 06:16:37;;;;;;;11.80;10.50;;;;;;101382.36;;;;107169;1277;65553;-31
2022/04/30 06:19:07;;;;;;;10.90;9.40;;;;;;101380.73;;;;107133;1274;65582;-34
2022/04/30 06:21:37;;;;;;;12.50;9.90;;;;;;101378.65;;;;107160;1274;65670;-35
2022/04/30 06:24:07;;;;;;;12.50;10.20;;;;;;101377.06;;;;107157;1273;66841;-34
2022/04/30 06:26:34;;;;;;;11.30;9.70;;;;;;101377.06;;;;107188;1274;65703;-33
2022/04/30 06:29:05;;;;;;;11.30;10.10;;;;;;101376.55;;;;107164;1274;65662;-34
2022/04/30 06:31:33;;;;;;;10.30;9.20;;;;;;101376.56;;;;107170;1274;65774;-34
2022/04/30 06:34:04;;;;;;;11.30;9.50;;;;;;101375.60;;;;107091;1276;67443;-30
2022/04/30 06:36:31;;;;;;;12.00;9.30;;;;;;101374.70;;;;107181;1274;66100;-30
2022/04/30 06:39:02;;;;;;;10.90;9.70;;;;;;101373.27;;;;107150;1275;65700;-31
2022/04/30 06:41:32;;;;;;;11.40;10.10;;;;;;101377.98;;;;107183;1275;65640;-31
2022/04/30 06:44:02;;;;;;;11.40;9.80;;;;;;101377.76;;;;107172;1274;65685;-31
2022/04/30 06:46:30;;;;;;;12.20;9.80;;;;;;101382.73;;;;107163;1275;65687;-29
2022/04/30 06:48:58;;;;;;;10.70;9.30;;;;;;101382.73;;;;107119;1278;67299;-31
2022/04/30 06:51:25;;;;;;;11.90;10.00;;;;;;101380.93;;;;107131;1278;65702;-30
2022/04/30 06:59:36;;;;;;;11.40;9.40;;;;;;101381.38;;;;107195;1274;65586;-31
2022/04/30 07:02:17;;;;;;;12.20;9.90;;;;;;101380.08;;;;107159;1274;68084;-31
2022/04/30 07:04:51;;;;;;;10.80;8.90;;;;;;101379.09;;;;107196;1274;65688;-31
2022/04/30 07:07:22;;;;;;;13.70;10.30;;;;;;101378.77;;;;107157;1275;65685;-31
2022/04/30 07:09:50;;;;;;;11.90;9.30;;;;;;101377.61;;;;107146;1274;65708;-31
2022/04/30 07:12:20;;;;;;;10.30;9.10;;;;;;101376.84;;;;107186;1274;65710;-34
2022/04/30 07:14:51;;;;;;;11.80;9.60;;;;;;101376.86;;;;107127;1278;67955;-30
2022/04/30 07:17:19;;;;;;;11.10;9.70;;;;;;101375.30;;;;107171;1274;65589;-32
2022/04/30 07:19:46;;;;;;;11.50;9.20;;;;;;101374.03;;;;107152;1274;65692;-33
2022/04/30 07:22:13;;;;;;;10.30;9.10;;;;;;101371.77;;;;107134;1274;65568;-34
2022/04/30 07:24:43;;;;;;;12.00;9.40;;;;;;101368.36;;;;107173;1274;65672;-31
2022/04/30 07:27:15;;;;;;;11.20;9.40;;;;;;101367.65;;;;107089;1275;67203;-31
2022/04/30 07:29:48;;;;;;;11.60;9.60;;;;;;101370.23;;;;107053;1278;65813;-31
2022/04/30 07:32:16;;;;;;;12.00;9.60;;;;;;101370.12;;;;107112;1277;66955;-31
2022/04/30 07:34:44;;;;;;;11.60;8.80;;;;;;101371.48;;;;107174;1274;65575;-31
2022/04/30 07:37:14;;;;;;;10.80;9.40;;;;;;101371.66;;;;107189;1274;65558;-31
2022/04/30 07:39:41;;;;;;;11.40;9.40;;;;;;101367.97;;;;107183;1274;66775;-34
2022/04/30 07:42:11;;;;;;;13.00;9.20;;;;;;101367.91;;;;107066;1275;65723;-35
2022/04/30 07:44:39;;;;;;;11.40;9.00;;;;;;101367.15;;;;107139;1275;65675;-28
2022/04/30 07:47:09;;;;;;;12.70;8.60;;;;;;101363.70;;;;107287;1264;65564;-28
2022/04/30 07:49:36;;;;;;;11.50;9.30;;;;;;101361.84;;;;107229;1274;65579;-32
2022/04/30 07:52:08;;;;;;;11.10;9.40;;;;;;101356.50;;;;107278;1275;65705;-31
2022/04/30 07:54:36;;;;;;;10.90;9.30;;;;;;101354.98;;;;107258;1271;65814;-35
2022/04/30 07:57:04;;;;;;;10.30;7.70;;;;;;101357.02;;;;107257;1273;65676;-29
2022/04/30 07:59:35;;;;;;;9.00;6.20;;;;;;101354.06;;;;107256;1274;65645;-37
2022/04/30 08:02:04;;;;;;;11.30;8.10;;;;;;101362.51;;;;107264;1274;65530;-34
2022/04/30 08:04:34;;;;;;;9.50;6.10;;;;;;101356.07;;;;107276;1273;65774;-34
2022/04/30 08:07:02;;;;;;;11.20;7.80;;;;;;101355.82;;;;107254;1274;65669;-28
2022/04/30 08:09:32;;;;;;;11.90;8.50;;;;;;101351.11;;;;107223;1274;65590;-28
2022/04/30 08:12:01;;;;;;;11.20;7.80;;;;;;101345.20;;;;107234;1274;66111;-33
2022/04/30 08:14:31;;;;;;;10.80;7.50;;;;;;101343.57;;;;107259;1274;65703;-37
2022/04/30 08:16:58;;;;;;;9.50;6.10;;;;;;101339.49;;;;107245;1274;66933;-37
2022/04/30 08:19:26;;;;;;;10.30;7.50;;;;;;101340.16;;;;107218;1274;65765;-37
2022/04/30 08:21:57;;;;;;;10.00;6.70;;;;;;101338.45;;;;107222;1274;65712;-29
2022/04/30 08:24:28;;;;;;;8.50;5.50;;;;;;101337.99;;;;107245;1275;65569;-26
2022/04/30 08:26:59;;;;;;;9.50;6.80;;;;;;101345.04;;;;107259;1274;65595;-29
2022/04/30 08:29:30;;;;;;;8.90;5.70;;;;;;101344.63;;;;107267;1274;65609;-29
2022/04/30 08:31:57;;;;;;;9.20;5.60;;;;;;101347.55;;;;107253;1274;65576;-28
2022/04/30 08:34:24;;;;;;;7.50;4.40;;;;;;101345.27;;;;107247;1274;65538;-29
2022/04/30 08:36:53;;;;;;;8.90;5.40;;;;;;101343.15;;;;107217;1274;65819;-28
2022/04/30 08:39:20;;;;;;;8.10;5.60;;;;;;101344.72;;;;107277;1274;65547;-28
2022/04/30 08:41:52;;;;;;;8.90;5.50;;;;;;101346.05;;;;107258;1274;65707;-29
2022/04/30 08:44:19;;;;;;;7.60;4.90;;;;;;101338.42;;;;107264;1274;66040;-29
2022/04/30 08:46:46;;;;;;;7.50;5.10;;;;;;101340.88;;;;107236;1274;65681;-29
2022/04/30 08:49:14;;;;;;;7.70;5.00;;;;;;101336.67;;;;107234;1274;65676;-29
2022/04/30 08:51:45;;;;;;;7.20;4.90;;;;;;101327.27;;;;107247;1274;65771;-29
2022/04/30 08:54:12;;;;;;;6.80;4.30;;;;;;101323.33;;;;107279;1274;67271;-28
2022/04/30 08:56:55;;;;;;;5.70;3.70;;;;;;101331.78;;;;107252;1274;65551;-28
2022/04/30 08:59:27;;;;;;;6.90;4.10;;;;;;101327.69;;;;107262;1273;65461;-29
2022/04/30 09:01:58;;;;;;;7.50;4.60;;;;;;101323.90;;;;107289;1274;65612;-30
2022/04/30 09:04:26;;;;;;;6.30;4.10;;;;;;101323.64;;;;107176;1274;65676;-28
2022/04/30 09:06:55;;;;;;;7.60;4.20;;;;;;101320.74;;;;107173;1274;66966;-35
2022/04/30 09:09:32;;;;;;;6.50;4.40;;;;;;101312.95;;;;107244;1274;65775;-35
2022/04/30 09:12:12;;;;;;;5.20;3.80;;;;;;101312.77;;;;107248;1274;65735;-35
2022/04/30 09:14:43;;;;;;;7.80;4.30;;;;;;101317.26;;;;107245;1274;65726;-36
2022/04/30 09:17:13;;;;;;;6.10;3.60;;;;;;101316.55;;;;107216;1272;65554;-36
2022/04/30 09:19:59;;;;;;;5.60;3.00;;;;;;101315.27;;;;107149;1274;67238;-36
2022/04/30 09:22:31;;;;;;;5.80;3.20;;;;;;101314.02;;;;107268;1273;65513;-29
2022/04/30 09:25:12;;;;;;;6.00;3.60;;;;;;101313.73;;;;107260;1274;65551;-28
2022/04/30 09:27:51;;;;;;;6.00;3.40;;;;;;101304.33;;;;107235;1274;65704;-36
2022/04/30 09:30:29;;;;;;;5.30;3.50;;;;;;101305.35;;;;107269;1273;65554;-40
2022/04/30 09:33:07;;;;;;;7.30;3.70;;;;;;101304.07;;;;107302;1274;68032;-28
2022/04/30 09:38:25;;;;;;;5.90;2.90;;;;;;101304.30;;;;107251;1274;64426;-41
2022/04/30 09:40:58;;;;;;;6.60;2.80;;;;;;101309.43;;;;107229;1274;65582;-38
2022/04/30 09:43:36;;;;;;;5.20;2.80;;;;;;101311.66;;;;107240;1274;65611;-29
2022/04/30 09:46:08;;;;;;;5.10;2.90;;;;;;101307.70;;;;107247;1274;68373;-29
2022/04/30 09:54:11;;;;;;;5.40;3.50;;;;;;101303.55;;;;107202;1274;65655;-29
2022/04/30 09:56:45;;;;;;;5.00;2.50;;;;;;101301.85;;;;107242;1274;65714;-28
2022/04/30 09:59:15;;;;;;;5.20;2.50;;;;;;101300.77;;;;107262;1273;67239;-28
2022/04/30 10:01:48;;;;;;;3.90;2.10;;;;;;101295.89;;;;107217;1274;65676;-35
2022/04/30 10:04:18;;;;;;;5.30;2.00;;;;;;101291.31;;;;107257;1274;66157;-29
2022/04/30 10:06:51;;;;;;;4.80;2.20;;;;;;101289.51;;;;107255;1274;65451;-38
2022/04/30 10:09:26;;;;;;;4.90;2.40;;;;;;101292.04;;;;107260;1274;65560;-38
2022/04/30 10:12:11;;;;;;;3.30;1.90;;;;;;101286.84;;;;107258;1274;68496;-28
2022/04/30 10:14:50;;;;;;;5.80;2.40;;;;;;101282.52;;;;107234;1274;65655;-29
2022/04/30 10:17:20;;;;;;;6.30;2.60;;;;;;101278.64;;;;107230;1274;65628;-38
2022/04/30 10:20:18;;;;;;;4.20;2.00;;;;;;101279.52;;;;107219;1274;65765;-37
2022/04/30 10:23:00;;;;;;;4.70;2.20;;;;;;101278.22;;;;107278;1274;65719;-29
2022/04/30 10:25:42;;;;;;;4.90;2.60;;;;;;101272.86;;;;107228;1274;68100;-28
2022/04/30 10:28:19;;;;;;;6.00;2.60;;;;;;101271.70;;;;107235;1274;65695;-39
2022/04/30 10:31:02;;;;;;;6.70;2.90;;;;;;101268.36;;;;107241;1274;65595;-38
2022/04/30 10:33:48;;;;;;;5.60;2.60;;;;;;101267.52;;;;107213;1274;66435;-38
2022/04/30 10:36:16;;;;;;;4.80;2.70;;;;;;101265.27;;;;107243;1274;66131;-39
2022/04/30 10:38:55;;;;;;;4.50;2.10;;;;;;101263.88;;;;107234;1274;65812;-39
2022/04/30 10:41:22;;;;;;;4.20;2.00;;;;;;101263.23;;;;107256;1274;65686;-40
2022/04/30 10:44:01;;;;;;;5.00;2.60;;;;;;101255.16;;;;107265;1274;65662;-38
2022/04/30 10:46:37;;;;;;;4.10;1.90;;;;;;101255.67;;;;107161;1274;65710;-38
2022/04/30 10:49:06;;;;;;;6.00;2.20;;;;;;101256.41;;;;107239;1274;65783;-29
2022/04/30 10:51:42;;;;;;;4.10;1.80;;;;;;101252.00;;;;107252;1274;66781;-28
2022/04/30 10:54:21;;;;;;;4.50;2.30;;;;;;101252.09;;;;107270;1274;65685;-28
2022/04/30 10:56:59;;;;;;;4.40;1.90;;;;;;101250.36;;;;107249;1274;65630;-37
2022/04/30 10:59:30;;;;;;;3.80;2.00;;;;;;101253.61;;;;107198;1273;65566;-38
2022/04/30 11:02:02;;;;;;;5.60;2.10;;;;;;101246.88;;;;107283;1274;65605;-37
2022/04/30 11:04:29;;;;;;;4.90;2.10;;;;;;101241.17;;;;107264;1274;68542;-38
2022/04/30 11:07:00;;;;;;;5.20;2.20;;;;;;101237.27;;;;107250;1274;65643;-29
2022/04/30 11:09:31;;;;;;;3.90;1.80;;;;;;101240.46;;;;107190;1274;65678;-28
2022/04/30 11:11:59;;;;;;;4.60;2.30;;;;;;101234.58;;;;107256;1274;65584;-27
2022/04/30 11:14:29;;;;;;;3.90;1.90;;;;;;101235.97;;;;107316;1274;65614;-29
2022/04/30 11:17:00;;;;;;;3.50;1.80;;;;;;101233.84;;;;107201;1274;66952;-38
2022/04/30 11:19:27;;;;;;;3.90;1.80;;;;;;101231.96;;;;107231;1274;65701;-39
2022/04/30 11:21:55;;;;;;;4.00;1.60;;;;;;101224.30;;;;107240;1274;65707;-30
2022/04/30 11:24:26;;;;;;;4.20;1.60;;;;;;101220.95;;;;107242;1274;65713;-29
2022/04/30 11:27:03;;;;;;;3.80;1.70;;;;;;101217.23;;;;107280;1274;65661;-30
2022/04/30 11:29:38;;;;;;;4.10;1.70;;;;;;101224.18;;;;107246;1274;66864;-29
2022/04/30 11:32:06;;;;;;;3.80;1.90;;;;;;101222.45;;;;107269;1274;65758;-39
2022/04/30 11:34:40;;;;;;;4.20;1.80;;;;;;101214.20;;;;107289;1274;65579;-39
2022/04/30 11:37:09;;;;;;;5.40;1.90;;;;;;101215.98;;;;107233;1274;65709;-28
2022/04/30 11:39:39;;;;;;;4.80;1.70;;;;;;101213.23;;;;107256;1274;65582;-29
2022/04/30 11:42:07;;;;;;;4.40;2.00;;;;;;101211.72;;;;107241;1274;66760;-29
2022/04/30 11:44:38;;;;;;;4.90;1.90;;;;;;101204.91;;;;107259;1273;65588;-29
2022/04/30 11:47:09;;;;;;;4.00;1.60;;;;;;101202.04;;;;107269;1274;65681;-36
2022/04/30 11:49:40;;;;;;;6.30;1.80;;;;;;101197.55;;;;107205;1274;65582;-34
2022/04/30 11:52:08;;;;;;;4.10;1.60;;;;;;101193.98;;;;107224;1274;65674;-28
2022/04/30 11:54:40;;;;;;;3.80;1.70;;;;;;101189.17;;;;107271;1274;66712;-29
2022/04/30 11:57:08;;;;;;;3.10;1.40;;;;;;101186.92;;;;107290;1274;65579;-27
2022/04/30 11:59:41;;;;;;;4.90;1.70;;;;;;101181.83;;;;107263;1274;65662;-28
2022/04/30 12:02:14;;;;;;;3.80;1.70;;;;;;101177.70;;;;107241;1274;65706;-35
2022/04/30 12:04:42;;;;;;;4.00;1.60;;;;;;101180.17;;;;107286;1274;65595;-34
2022/04/30 12:07:12;;;;;;;3.90;1.50;;;;;;101178.73;;;;107284;1274;65684;-29
2022/04/30 12:09:49;;;;;;;3.30;1.50;;;;;;101169.00;;;;107261;1274;65815;-27
2022/04/30 12:12:22;;;;;;;3.60;1.40;;;;;;101165.70;;;;107229;1274;65698;-28
2022/04/30 12:14:54;;;;;;;3.50;1.40;;;;;;101169.77;;;;107234;1274;65733;-28
2022/04/30 12:17:30;;;;;;;3.10;1.50;;;;;;101163.80;;;;107045;1274;279741;-29
2022/04/30 12:26:00;;;;;;;3.70;1.50;;;;;;101161.83;;;;107226;1274;65537;-34
2022/04/30 12:28:52;;;;;;;4.20;1.50;;;;;;101155.77;;;;107238;1274;66130;-28
2022/04/30 12:31:20;;;;;;;4.00;1.80;;;;;;101153.12;;;;107238;1274;65658;-29
2022/04/30 12:33:50;;;;;;;4.10;1.70;;;;;;101145.42;;;;107225;1274;66819;-29
2022/04/30 12:36:18;;;;;;;4.00;1.50;;;;;;101146.58;;;;107168;1274;65676;-31
2022/04/30 12:41:25;;;;;;;3.70;1.40;;;;;;101146.73;;;;107232;1274;65704;-41
2022/04/30 12:43:56;;;;;;;3.40;1.40;;;;;;101148.12;;;;107269;1274;65650;-38
2022/04/30 12:46:24;;;;;;;3.60;1.60;;;;;;101148.17;;;;107312;1274;66963;-36
2022/04/30 12:48:55;;;;;;;3.60;1.60;;;;;;101148.00;;;;107284;1274;65715;-31
2022/04/30 12:51:25;;;;;;;4.90;1.50;;;;;;101145.06;;;;107236;1274;65650;-28
2022/04/30 12:53:53;;;;;;;3.70;1.70;;;;;;101144.87;;;;107223;1274;65537;-34
2022/04/30 12:56:22;;;;;;;5.20;1.80;;;;;;101140.98;;;;107263;1274;65679;-29
2022/04/30 12:58:49;;;;;;;4.10;1.80;;;;;;101138.26;;;;107255;1274;67072;-29
2022/04/30 13:01:17;;;;;;;3.60;1.40;;;;;;101135.77;;;;107250;1273;65681;-29
2022/04/30 13:03:48;;;;;;;11.40;4.10;;;;;;101134.80;;;;107181;1274;65611;-36
2022/04/30 13:06:19;;;;;;;4.80;1.70;;;;;;101133.85;;;;107240;1274;65582;-36
2022/04/30 13:14:24;;;;;;;4.60;1.80;;;;;;101130.16;;;;107217;1274;65554;-36
2022/04/30 13:16:51;;;;;;;4.70;1.70;;;;;;101125.80;;;;107229;1274;65813;-29
2022/04/30 13:19:22;;;;;;;4.10;1.50;;;;;;101121.14;;;;107175;1274;65619;-29
2022/04/30 13:21:49;;;;;;;6.40;1.80;;;;;;101115.61;;;;107228;1274;65575;-35
2022/04/30 13:24:19;;;;;;;4.90;1.80;;;;;;101116.92;;;;107239;1274;66753;-35
2022/04/30 13:26:47;;;;;;;3.90;1.60;;;;;;101114.48;;;;107270;1274;65671;-27
2022/04/30 13:29:14;;;;;;;5.70;1.60;;;;;;101116.98;;;;107247;1274;65691;-29
2022/04/30 13:31:47;;;;;;;4.80;1.80;;;;;;101111.48;;;;107253;1272;65713;-30
2022/04/30 13:34:14;;;;;;;4.80;1.70;;;;;;101116.77;;;;107249;1274;66163;-27
2022/04/30 13:36:48;;;;;;;4.10;1.50;;;;;;101118.93;;;;107229;1274;66328;-33
2022/04/30 13:39:16;;;;;;;3.70;1.70;;;;;;101115.36;;;;107258;1274;65736;-36
2022/04/30 13:41:46;;;;;;;4.50;1.70;;;;;;101115.59;;;;107212;1274;65605;-33
2022/04/30 13:44:13;;;;;;;4.30;1.60;;;;;;101116.45;;;;107262;1274;65672;-36
2022/04/30 13:46:44;;;;;;;3.90;1.40;;;;;;101116.46;;;;107268;1274;65706;-34
2022/04/30 13:49:11;;;;;;;3.40;1.60;;;;;;101111.57;;;;107214;1274;67177;-29